KERI

Erie International / Tom Ridge Field Airport

Erie, Pennsylvania, USA
METAR KERI 232251Z 25023G32KT 9SM FEW009 SCT012 OVC025 02/M01 A2971 RMK AO2 PK WND 24035/2226 RAB16E28SNB28E43 SLPNO P0001 T00221006
Observed Flight Rules
Jan-23 @ 22:51 UTC (49 minutes ago) Marginal Visual Flight Rules
Wind Visibility Clouds
250° at 23 knots
 Gusting to 32 knots
9 miles
  • Few at 900' AGL
  • Scattered at 1,200' AGL
  • Overcast at 2,500' AGL
Temperatures Readings Precipitation
Current 2°C / 36°F
Dewpoint -1°C / 30°F
Humidity 81%
Altimeter 29.71" Hg
Pressure 1006 hPa
Elevation 222
Current Rain 0.01
METAR KERI 232251Z 25023G32KT 9SM FEW009 SCT012 OVC025 02/M01 A2971 RMK AO2 PK WND 24035/2226 RAB16E28SNB28E43 SLPNO P0001 T00221006
Observed Flight Rules
Jan-23 @ 22:51 UTC
(49 minutes ago)
MVFR
Wind Visibility
250° at 23 knots
 Gusting to 32 knots
9 miles
Clouds
  • Few at 900' AGL
  • Scattered at 1,200' AGL
  • Overcast at 2,500' AGL
Temperature Dewpoint
2°C / 36°F -1°C / 30°F
Humidity Altimeter Pressure
81% 29.71" Hg 1006 hPa
Current Rain
0.01